sensor_id;sensor_type;location;lat;lon;timestamp;P1;durP1;ratioP1;P2;durP2;ratioP2
60608;SDS011;48221;53.528;9.884;2022-10-16T00:01:28;1.05;;;1.05;;
60608;SDS011;48221;53.528;9.884;2022-10-16T00:03:55;1.27;;;1.20;;
60608;SDS011;48221;53.528;9.884;2022-10-16T00:06:22;5.70;;;1.40;;
60608;SDS011;48221;53.528;9.884;2022-10-16T00:08:48;1.58;;;1.48;;
60608;SDS011;48221;53.528;9.884;2022-10-16T00:11:16;1.55;;;1.42;;
60608;SDS011;48221;53.528;9.884;2022-10-16T00:13:44;1.30;;;1.20;;
60608;SDS011;48221;53.528;9.884;2022-10-16T00:16:11;1.05;;;0.95;;
60608;SDS011;48221;53.528;9.884;2022-10-16T00:18:38;1.55;;;1.20;;
60608;SDS011;48221;53.528;9.884;2022-10-16T00:21:05;1.17;;;1.02;;
60608;SDS011;48221;53.528;9.884;2022-10-16T00:23:38;1.50;;;1.33;;
60608;SDS011;48221;53.528;9.884;2022-10-16T00:26:06;1.10;;;1.10;;
60608;SDS011;48221;53.528;9.884;2022-10-16T00:28:34;1.27;;;1.17;;
60608;SDS011;48221;53.528;9.884;2022-10-16T00:31:02;1.25;;;1.10;;
60608;SDS011;48221;53.528;9.884;2022-10-16T00:33:29;0.95;;;0.95;;
60608;SDS011;48221;53.528;9.884;2022-10-16T00:35:57;1.90;;;1.23;;
60608;SDS011;48221;53.528;9.884;2022-10-16T00:38:23;1.08;;;0.98;;
60608;SDS011;48221;53.528;9.884;2022-10-16T00:40:48;1.27;;;1.10;;
60608;SDS011;48221;53.528;9.884;2022-10-16T00:43:14;0.65;;;0.65;;
60608;SDS011;48221;53.528;9.884;2022-10-16T00:48:39;0.90;;;0.90;;
60608;SDS011;48221;53.528;9.884;2022-10-16T00:51:05;1.10;;;0.98;;
60608;SDS011;48221;53.528;9.884;2022-10-16T00:53:32;0.73;;;0.73;;
60608;SDS011;48221;53.528;9.884;2022-10-16T00:55:58;1.20;;;1.10;;
60608;SDS011;48221;53.528;9.884;2022-10-16T00:58:24;0.80;;;0.80;;
60608;SDS011;48221;53.528;9.884;2022-10-16T01:00:49;1.02;;;1.02;;
60608;SDS011;48221;53.528;9.884;2022-10-16T01:03:22;1.45;;;1.30;;
60608;SDS011;48221;53.528;9.884;2022-10-16T01:06:03;0.80;;;0.80;;
60608;SDS011;48221;53.528;9.884;2022-10-16T01:08:44;0.63;;;0.63;;
60608;SDS011;48221;53.528;9.884;2022-10-16T01:11:20;0.52;;;0.52;;
60608;SDS011;48221;53.528;9.884;2022-10-16T01:13:53;0.63;;;0.63;;
60608;SDS011;48221;53.528;9.884;2022-10-16T01:19:08;1.00;;;0.90;;
60608;SDS011;48221;53.528;9.884;2022-10-16T01:21:40;0.55;;;0.55;;
60608;SDS011;48221;53.528;9.884;2022-10-16T01:24:15;0.65;;;0.50;;
60608;SDS011;48221;53.528;9.884;2022-10-16T01:27:08;0.28;;;0.28;;
60608;SDS011;48221;53.528;9.884;2022-10-16T01:30:21;1.00;;;1.00;;
60608;SDS011;48221;53.528;9.884;2022-10-16T01:37:44;0.50;;;0.50;;
60608;SDS011;48221;53.528;9.884;2022-10-16T01:40:14;0.60;;;0.60;;
60608;SDS011;48221;53.528;9.884;2022-10-16T01:42:48;0.50;;;0.50;;
60608;SDS011;48221;53.528;9.884;2022-10-16T01:45:19;0.88;;;0.88;;
60608;SDS011;48221;53.528;9.884;2022-10-16T01:47:45;0.68;;;0.68;;
60608;SDS011;48221;53.528;9.884;2022-10-16T01:50:12;0.50;;;0.50;;
60608;SDS011;48221;53.528;9.884;2022-10-16T01:52:41;0.75;;;0.70;;
60608;SDS011;48221;53.528;9.884;2022-10-16T01:55:10;0.50;;;0.45;;
60608;SDS011;48221;53.528;9.884;2022-10-16T01:57:39;0.60;;;0.60;;
60608;SDS011;48221;53.528;9.884;2022-10-16T02:00:10;0.32;;;0.32;;
60608;SDS011;48221;53.528;9.884;2022-10-16T02:02:38;0.25;;;0.25;;
60608;SDS011;48221;53.528;9.884;2022-10-16T02:05:19;0.60;;;0.60;;
60608;SDS011;48221;53.528;9.884;2022-10-16T02:07:45;0.90;;;0.82;;
60608;SDS011;48221;53.528;9.884;2022-10-16T02:10:11;0.65;;;0.65;;
60608;SDS011;48221;53.528;9.884;2022-10-16T02:12:38;0.80;;;0.80;;
60608;SDS011;48221;53.528;9.884;2022-10-16T02:15:07;0.88;;;0.88;;
60608;SDS011;48221;53.528;9.884;2022-10-16T02:17:33;0.88;;;0.88;;
60608;SDS011;48221;53.528;9.884;2022-10-16T02:19:58;1.05;;;1.00;;
60608;SDS011;48221;53.528;9.884;2022-10-16T02:22:34;0.50;;;0.50;;
60608;SDS011;48221;53.528;9.884;2022-10-16T02:33:03;0.40;;;0.40;;
60608;SDS011;48221;53.528;9.884;2022-10-16T02:35:32;0.75;;;0.50;;
60608;SDS011;48221;53.528;9.884;2022-10-16T02:37:59;0.60;;;0.60;;
60608;SDS011;48221;53.528;9.884;2022-10-16T02:40:24;0.60;;;0.60;;
60608;SDS011;48221;53.528;9.884;2022-10-16T02:42:52;0.50;;;0.50;;
60608;SDS011;48221;53.528;9.884;2022-10-16T02:45:19;0.50;;;0.50;;
60608;SDS011;48221;53.528;9.884;2022-10-16T02:47:45;0.52;;;0.52;;
60608;SDS011;48221;53.528;9.884;2022-10-16T02:50:10;0.50;;;0.50;;
60608;SDS011;48221;53.528;9.884;2022-10-16T02:52:35;0.45;;;0.45;;
60608;SDS011;48221;53.528;9.884;2022-10-16T02:55:01;0.60;;;0.60;;
60608;SDS011;48221;53.528;9.884;2022-10-16T02:57:28;0.77;;;0.68;;
60608;SDS011;48221;53.528;9.884;2022-10-16T02:59:53;0.30;;;0.30;;
60608;SDS011;48221;53.528;9.884;2022-10-16T03:02:19;0.40;;;0.40;;
60608;SDS011;48221;53.528;9.884;2022-10-16T03:04:44;0.70;;;0.70;;
60608;SDS011;48221;53.528;9.884;2022-10-16T03:07:10;0.50;;;0.50;;
60608;SDS011;48221;53.528;9.884;2022-10-16T03:09:35;0.32;;;0.32;;
60608;SDS011;48221;53.528;9.884;2022-10-16T03:12:00;1.17;;;0.75;;
60608;SDS011;48221;53.528;9.884;2022-10-16T03:14:26;0.40;;;0.40;;
60608;SDS011;48221;53.528;9.884;2022-10-16T03:16:51;0.28;;;0.28;;
60608;SDS011;48221;53.528;9.884;2022-10-16T03:19:17;0.50;;;0.50;;
60608;SDS011;48221;53.528;9.884;2022-10-16T03:21:43;0.35;;;0.35;;
60608;SDS011;48221;53.528;9.884;2022-10-16T03:24:08;0.60;;;0.60;;
60608;SDS011;48221;53.528;9.884;2022-10-16T03:26:33;0.25;;;0.25;;
60608;SDS011;48221;53.528;9.884;2022-10-16T03:28:59;1.48;;;0.50;;
60608;SDS011;48221;53.528;9.884;2022-10-16T03:31:24;0.40;;;0.40;;
60608;SDS011;48221;53.528;9.884;2022-10-16T03:33:49;0.68;;;0.57;;
60608;SDS011;48221;53.528;9.884;2022-10-16T03:36:15;0.30;;;0.30;;
60608;SDS011;48221;53.528;9.884;2022-10-16T03:38:40;0.40;;;0.40;;
60608;SDS011;48221;53.528;9.884;2022-10-16T03:41:05;0.55;;;0.55;;
60608;SDS011;48221;53.528;9.884;2022-10-16T03:43:32;0.60;;;0.60;;
60608;SDS011;48221;53.528;9.884;2022-10-16T03:45:58;0.52;;;0.52;;
60608;SDS011;48221;53.528;9.884;2022-10-16T03:48:23;1.35;;;0.90;;
60608;SDS011;48221;53.528;9.884;2022-10-16T03:50:48;0.30;;;0.30;;
60608;SDS011;48221;53.528;9.884;2022-10-16T03:53:15;0.98;;;0.60;;
60608;SDS011;48221;53.528;9.884;2022-10-16T03:55:41;1.40;;;0.90;;
60608;SDS011;48221;53.528;9.884;2022-10-16T03:58:07;0.70;;;0.70;;
60608;SDS011;48221;53.528;9.884;2022-10-16T04:00:33;0.65;;;0.65;;
60608;SDS011;48221;53.528;9.884;2022-10-16T04:02:59;1.10;;;0.63;;
60608;SDS011;48221;53.528;9.884;2022-10-16T04:05:25;2.80;;;0.70;;
60608;SDS011;48221;53.528;9.884;2022-10-16T04:07:50;1.10;;;0.95;;
60608;SDS011;48221;53.528;9.884;2022-10-16T04:10:15;0.52;;;0.52;;
60608;SDS011;48221;53.528;9.884;2022-10-16T04:12:41;0.63;;;0.63;;
60608;SDS011;48221;53.528;9.884;2022-10-16T04:15:06;1.10;;;0.85;;
60608;SDS011;48221;53.528;9.884;2022-10-16T04:17:32;0.60;;;0.60;;
60608;SDS011;48221;53.528;9.884;2022-10-16T04:19:57;0.70;;;0.65;;
60608;SDS011;48221;53.528;9.884;2022-10-16T04:22:22;0.77;;;0.77;;
60608;SDS011;48221;53.528;9.884;2022-10-16T04:24:48;0.88;;;0.88;;
60608;SDS011;48221;53.528;9.884;2022-10-16T04:27:13;0.60;;;0.60;;
60608;SDS011;48221;53.528;9.884;2022-10-16T04:29:38;0.80;;;0.80;;
60608;SDS011;48221;53.528;9.884;2022-10-16T04:32:03;0.52;;;0.52;;
60608;SDS011;48221;53.528;9.884;2022-10-16T04:34:29;0.45;;;0.45;;
60608;SDS011;48221;53.528;9.884;2022-10-16T04:36:54;0.40;;;0.40;;
60608;SDS011;48221;53.528;9.884;2022-10-16T04:39:19;0.40;;;0.40;;
60608;SDS011;48221;53.528;9.884;2022-10-16T04:41:45;0.55;;;0.55;;
60608;SDS011;48221;53.528;9.884;2022-10-16T04:44:10;0.57;;;0.57;;
60608;SDS011;48221;53.528;9.884;2022-10-16T04:46:35;0.98;;;0.50;;
60608;SDS011;48221;53.528;9.884;2022-10-16T04:49:00;0.52;;;0.52;;
60608;SDS011;48221;53.528;9.884;2022-10-16T04:51:26;2.53;;;1.13;;
60608;SDS011;48221;53.528;9.884;2022-10-16T04:53:52;0.70;;;0.70;;
60608;SDS011;48221;53.528;9.884;2022-10-16T04:56:19;0.63;;;0.63;;
60608;SDS011;48221;53.528;9.884;2022-10-16T04:58:45;0.38;;;0.38;;
60608;SDS011;48221;53.528;9.884;2022-10-16T05:01:11;0.73;;;0.73;;
60608;SDS011;48221;53.528;9.884;2022-10-16T05:03:36;0.80;;;0.80;;
60608;SDS011;48221;53.528;9.884;2022-10-16T05:06:01;0.85;;;0.85;;
60608;SDS011;48221;53.528;9.884;2022-10-16T05:08:27;2.92;;;0.68;;
60608;SDS011;48221;53.528;9.884;2022-10-16T05:10:52;1.63;;;0.80;;
60608;SDS011;48221;53.528;9.884;2022-10-16T05:13:17;0.80;;;0.80;;
60608;SDS011;48221;53.528;9.884;2022-10-16T05:15:46;0.50;;;0.50;;
60608;SDS011;48221;53.528;9.884;2022-10-16T05:18:13;1.67;;;1.35;;
60608;SDS011;48221;53.528;9.884;2022-10-16T05:20:38;0.52;;;0.52;;
60608;SDS011;48221;53.528;9.884;2022-10-16T05:23:03;1.10;;;1.00;;
60608;SDS011;48221;53.528;9.884;2022-10-16T05:25:29;1.17;;;1.08;;
60608;SDS011;48221;53.528;9.884;2022-10-16T05:27:54;0.80;;;0.80;;
60608;SDS011;48221;53.528;9.884;2022-10-16T05:30:19;0.70;;;0.70;;
60608;SDS011;48221;53.528;9.884;2022-10-16T05:32:48;0.73;;;0.73;;
60608;SDS011;48221;53.528;9.884;2022-10-16T05:35:15;0.90;;;0.85;;
60608;SDS011;48221;53.528;9.884;2022-10-16T05:37:41;0.60;;;0.60;;
60608;SDS011;48221;53.528;9.884;2022-10-16T05:40:06;0.55;;;0.55;;
60608;SDS011;48221;53.528;9.884;2022-10-16T05:42:32;0.55;;;0.55;;
60608;SDS011;48221;53.528;9.884;2022-10-16T05:44:57;0.98;;;0.88;;
60608;SDS011;48221;53.528;9.884;2022-10-16T05:47:22;0.75;;;0.75;;
60608;SDS011;48221;53.528;9.884;2022-10-16T05:49:48;0.88;;;0.60;;
60608;SDS011;48221;53.528;9.884;2022-10-16T05:52:13;0.50;;;0.50;;
60608;SDS011;48221;53.528;9.884;2022-10-16T05:54:38;0.25;;;0.25;;
60608;SDS011;48221;53.528;9.884;2022-10-16T05:57:04;0.57;;;0.52;;
60608;SDS011;48221;53.528;9.884;2022-10-16T05:59:30;0.60;;;0.60;;
60608;SDS011;48221;53.528;9.884;2022-10-16T06:01:56;0.68;;;0.68;;
60608;SDS011;48221;53.528;9.884;2022-10-16T06:04:21;0.55;;;0.55;;
60608;SDS011;48221;53.528;9.884;2022-10-16T06:06:47;0.60;;;0.55;;
60608;SDS011;48221;53.528;9.884;2022-10-16T06:09:12;1.02;;;1.02;;
60608;SDS011;48221;53.528;9.884;2022-10-16T06:11:37;1.20;;;1.17;;
60608;SDS011;48221;53.528;9.884;2022-10-16T06:14:02;0.80;;;0.80;;
60608;SDS011;48221;53.528;9.884;2022-10-16T06:16:31;1.95;;;1.45;;
60608;SDS011;48221;53.528;9.884;2022-10-16T06:19:01;2.70;;;0.90;;
60608;SDS011;48221;53.528;9.884;2022-10-16T06:21:29;0.70;;;0.63;;
60608;SDS011;48221;53.528;9.884;2022-10-16T06:23:56;0.75;;;0.75;;
60608;SDS011;48221;53.528;9.884;2022-10-16T06:26:23;0.70;;;0.70;;
60608;SDS011;48221;53.528;9.884;2022-10-16T06:28:50;0.60;;;0.60;;
60608;SDS011;48221;53.528;9.884;2022-10-16T06:31:16;0.80;;;0.80;;
60608;SDS011;48221;53.528;9.884;2022-10-16T06:33:42;2.00;;;1.13;;
60608;SDS011;48221;53.528;9.884;2022-10-16T06:36:12;2.05;;;1.30;;
60608;SDS011;48221;53.528;9.884;2022-10-16T06:38:39;0.50;;;0.50;;
60608;SDS011;48221;53.528;9.884;2022-10-16T06:41:05;0.50;;;0.50;;
60608;SDS011;48221;53.528;9.884;2022-10-16T06:43:32;0.95;;;0.95;;
60608;SDS011;48221;53.528;9.884;2022-10-16T06:46:00;1.67;;;1.20;;
60608;SDS011;48221;53.528;9.884;2022-10-16T06:48:27;0.90;;;0.90;;
60608;SDS011;48221;53.528;9.884;2022-10-16T06:51:00;1.55;;;1.33;;
60608;SDS011;48221;53.528;9.884;2022-10-16T06:53:31;2.80;;;1.88;;
60608;SDS011;48221;53.528;9.884;2022-10-16T06:56:06;0.90;;;0.90;;
60608;SDS011;48221;53.528;9.884;2022-10-16T06:58:39;1.55;;;1.42;;
60608;SDS011;48221;53.528;9.884;2022-10-16T07:01:05;1.25;;;1.17;;
60608;SDS011;48221;53.528;9.884;2022-10-16T07:03:30;1.58;;;1.30;;
60608;SDS011;48221;53.528;9.884;2022-10-16T07:05:56;1.80;;;1.00;;
60608;SDS011;48221;53.528;9.884;2022-10-16T07:08:21;1.35;;;1.25;;
60608;SDS011;48221;53.528;9.884;2022-10-16T07:10:47;1.13;;;1.02;;
60608;SDS011;48221;53.528;9.884;2022-10-16T07:13:12;1.42;;;1.33;;
60608;SDS011;48221;53.528;9.884;2022-10-16T07:15:39;1.25;;;1.05;;
60608;SDS011;48221;53.528;9.884;2022-10-16T07:18:05;3.88;;;1.55;;
60608;SDS011;48221;53.528;9.884;2022-10-16T07:20:30;1.00;;;1.00;;
60608;SDS011;48221;53.528;9.884;2022-10-16T07:22:56;1.77;;;1.55;;
60608;SDS011;48221;53.528;9.884;2022-10-16T07:25:21;1.40;;;1.30;;
60608;SDS011;48221;53.528;9.884;2022-10-16T07:27:46;2.50;;;1.70;;
60608;SDS011;48221;53.528;9.884;2022-10-16T07:30:12;2.17;;;1.08;;
60608;SDS011;48221;53.528;9.884;2022-10-16T07:32:37;2.28;;;1.55;;
60608;SDS011;48221;53.528;9.884;2022-10-16T07:35:03;1.45;;;1.27;;
60608;SDS011;48221;53.528;9.884;2022-10-16T07:37:29;1.60;;;1.50;;
60608;SDS011;48221;53.528;9.884;2022-10-16T07:39:54;2.30;;;1.85;;
60608;SDS011;48221;53.528;9.884;2022-10-16T07:42:19;1.95;;;1.77;;
60608;SDS011;48221;53.528;9.884;2022-10-16T07:44:45;1.25;;;1.15;;
60608;SDS011;48221;53.528;9.884;2022-10-16T07:47:10;5.72;;;1.33;;
60608;SDS011;48221;53.528;9.884;2022-10-16T07:49:35;2.08;;;1.42;;
60608;SDS011;48221;53.528;9.884;2022-10-16T07:52:01;1.55;;;1.40;;
60608;SDS011;48221;53.528;9.884;2022-10-16T07:54:26;2.65;;;1.48;;
60608;SDS011;48221;53.528;9.884;2022-10-16T07:56:51;2.08;;;1.45;;
60608;SDS011;48221;53.528;9.884;2022-10-16T07:59:16;1.83;;;1.48;;
60608;SDS011;48221;53.528;9.884;2022-10-16T08:01:42;1.38;;;1.27;;
60608;SDS011;48221;53.528;9.884;2022-10-16T08:04:07;1.35;;;1.25;;
60608;SDS011;48221;53.528;9.884;2022-10-16T08:06:37;3.00;;;1.27;;
60608;SDS011;48221;53.528;9.884;2022-10-16T08:09:03;1.35;;;1.25;;
60608;SDS011;48221;53.528;9.884;2022-10-16T08:11:29;1.42;;;1.30;;
60608;SDS011;48221;53.528;9.884;2022-10-16T08:13:55;2.58;;;1.23;;
60608;SDS011;48221;53.528;9.884;2022-10-16T08:16:20;1.40;;;1.30;;
60608;SDS011;48221;53.528;9.884;2022-10-16T08:18:46;4.47;;;1.40;;
60608;SDS011;48221;53.528;9.884;2022-10-16T08:21:13;1.30;;;1.10;;
60608;SDS011;48221;53.528;9.884;2022-10-16T08:23:42;1.52;;;1.30;;
60608;SDS011;48221;53.528;9.884;2022-10-16T08:26:09;1.10;;;1.10;;
60608;SDS011;48221;53.528;9.884;2022-10-16T08:28:35;1.90;;;1.30;;
60608;SDS011;48221;53.528;9.884;2022-10-16T08:31:11;1.27;;;1.15;;
60608;SDS011;48221;53.528;9.884;2022-10-16T08:33:38;1.00;;;1.00;;
60608;SDS011;48221;53.528;9.884;2022-10-16T08:36:05;1.33;;;1.23;;
60608;SDS011;48221;53.528;9.884;2022-10-16T08:38:40;1.17;;;1.08;;
60608;SDS011;48221;53.528;9.884;2022-10-16T08:49:19;2.38;;;1.20;;
60608;SDS011;48221;53.528;9.884;2022-10-16T08:51:51;1.30;;;1.20;;
60608;SDS011;48221;53.528;9.884;2022-10-16T08:57:16;3.15;;;1.50;;
60608;SDS011;48221;53.528;9.884;2022-10-16T08:59:43;2.45;;;1.30;;
60608;SDS011;48221;53.528;9.884;2022-10-16T09:02:22;2.20;;;1.40;;
60608;SDS011;48221;53.528;9.884;2022-10-16T09:04:56;0.75;;;0.75;;
60608;SDS011;48221;53.528;9.884;2022-10-16T09:13:20;0.75;;;0.75;;
60608;SDS011;48221;53.528;9.884;2022-10-16T09:16:10;1.00;;;0.95;;
60608;SDS011;48221;53.528;9.884;2022-10-16T09:18:47;1.33;;;1.23;;
60608;SDS011;48221;53.528;9.884;2022-10-16T09:21:21;0.57;;;0.57;;
60608;SDS011;48221;53.528;9.884;2022-10-16T09:23:50;3.30;;;0.73;;
60608;SDS011;48221;53.528;9.884;2022-10-16T09:26:16;0.50;;;0.50;;
60608;SDS011;48221;53.528;9.884;2022-10-16T09:28:43;0.30;;;0.30;;
60608;SDS011;48221;53.528;9.884;2022-10-16T09:31:18;0.82;;;0.82;;
60608;SDS011;48221;53.528;9.884;2022-10-16T09:33:47;0.80;;;0.80;;
60608;SDS011;48221;53.528;9.884;2022-10-16T09:36:17;1.02;;;0.63;;
60608;SDS011;48221;53.528;9.884;2022-10-16T09:38:44;3.17;;;0.80;;
60608;SDS011;48221;53.528;9.884;2022-10-16T09:41:16;1.70;;;0.98;;
60608;SDS011;48221;53.528;9.884;2022-10-16T09:43:49;1.75;;;1.17;;
60608;SDS011;48221;53.528;9.884;2022-10-16T09:46:35;1.00;;;0.88;;
60608;SDS011;48221;53.528;9.884;2022-10-16T09:49:03;0.77;;;0.73;;
60608;SDS011;48221;53.528;9.884;2022-10-16T09:51:50;1.10;;;1.00;;
60608;SDS011;48221;53.528;9.884;2022-10-16T09:54:17;4.85;;;0.90;;
60608;SDS011;48221;53.528;9.884;2022-10-16T09:56:44;1.35;;;0.93;;
60608;SDS011;48221;53.528;9.884;2022-10-16T09:59:12;0.60;;;0.60;;
60608;SDS011;48221;53.528;9.884;2022-10-16T10:01:40;2.05;;;1.40;;
60608;SDS011;48221;53.528;9.884;2022-10-16T10:04:13;0.70;;;0.70;;
60608;SDS011;48221;53.528;9.884;2022-10-16T10:09:32;0.82;;;0.82;;
60608;SDS011;48221;53.528;9.884;2022-10-16T10:12:03;1.35;;;0.73;;
60608;SDS011;48221;53.528;9.884;2022-10-16T10:19:49;2.80;;;1.15;;
60608;SDS011;48221;53.528;9.884;2022-10-16T10:25:00;0.63;;;0.63;;
60608;SDS011;48221;53.528;9.884;2022-10-16T10:35:12;0.75;;;0.73;;
60608;SDS011;48221;53.528;9.884;2022-10-16T10:37:48;8.98;;;0.40;;
60608;SDS011;48221;53.528;9.884;2022-10-16T10:40:30;1.05;;;1.00;;
60608;SDS011;48221;53.528;9.884;2022-10-16T10:43:18;0.47;;;0.47;;
60608;SDS011;48221;53.528;9.884;2022-10-16T10:45:54;1.65;;;0.60;;
60608;SDS011;48221;53.528;9.884;2022-10-16T10:51:00;0.40;;;0.40;;
60608;SDS011;48221;53.528;9.884;2022-10-16T10:56:56;0.70;;;0.60;;
60608;SDS011;48221;53.528;9.884;2022-10-16T10:59:19;0.45;;;0.45;;
60608;SDS011;48221;53.528;9.884;2022-10-16T11:07:54;1.50;;;0.70;;
60608;SDS011;48221;53.528;9.884;2022-10-16T11:10:28;0.68;;;0.68;;
60608;SDS011;48221;53.528;9.884;2022-10-16T11:13:04;0.47;;;0.47;;
60608;SDS011;48221;53.528;9.884;2022-10-16T11:15:48;5.20;;;0.73;;
60608;SDS011;48221;53.528;9.884;2022-10-16T11:18:18;0.80;;;0.73;;
60608;SDS011;48221;53.528;9.884;2022-10-16T11:20:49;1.08;;;0.95;;
60608;SDS011;48221;53.528;9.884;2022-10-16T11:23:21;1.67;;;1.00;;
60608;SDS011;48221;53.528;9.884;2022-10-16T11:25:57;1.00;;;0.88;;
60608;SDS011;48221;53.528;9.884;2022-10-16T11:28:27;0.35;;;0.35;;
60608;SDS011;48221;53.528;9.884;2022-10-16T11:31:02;1.65;;;0.50;;
60608;SDS011;48221;53.528;9.884;2022-10-16T11:33:37;0.38;;;0.38;;
60608;SDS011;48221;53.528;9.884;2022-10-16T11:39:08;0.40;;;0.40;;
60608;SDS011;48221;53.528;9.884;2022-10-16T11:52:44;1.08;;;0.95;;
60608;SDS011;48221;53.528;9.884;2022-10-16T11:55:38;4.18;;;1.42;;
60608;SDS011;48221;53.528;9.884;2022-10-16T11:58:06;1.33;;;1.23;;
60608;SDS011;48221;53.528;9.884;2022-10-16T12:03:32;0.20;;;0.20;;
60608;SDS011;48221;53.528;9.884;2022-10-16T12:06:22;1.38;;;1.02;;
60608;SDS011;48221;53.528;9.884;2022-10-16T12:09:11;2.72;;;1.00;;
60608;SDS011;48221;53.528;9.884;2022-10-16T12:11:59;1.00;;;0.70;;
60608;SDS011;48221;53.528;9.884;2022-10-16T12:16:57;0.80;;;0.80;;
60608;SDS011;48221;53.528;9.884;2022-10-16T12:19:41;2.63;;;1.15;;
60608;SDS011;48221;53.528;9.884;2022-10-16T12:22:15;2.05;;;0.93;;
60608;SDS011;48221;53.528;9.884;2022-10-16T12:24:45;1.77;;;1.15;;
60608;SDS011;48221;53.528;9.884;2022-10-16T12:27:21;0.82;;;0.82;;
60608;SDS011;48221;53.528;9.884;2022-10-16T12:30:01;1.30;;;0.93;;
60608;SDS011;48221;53.528;9.884;2022-10-16T12:32:31;0.60;;;0.60;;
60608;SDS011;48221;53.528;9.884;2022-10-16T12:35:00;0.50;;;0.50;;
60608;SDS011;48221;53.528;9.884;2022-10-16T12:37:33;0.90;;;0.77;;
60608;SDS011;48221;53.528;9.884;2022-10-16T12:42:55;2.22;;;0.98;;
60608;SDS011;48221;53.528;9.884;2022-10-16T12:45:25;1.48;;;0.73;;
60608;SDS011;48221;53.528;9.884;2022-10-16T12:47:58;1.50;;;1.13;;
60608;SDS011;48221;53.528;9.884;2022-10-16T12:52:59;14.25;;;1.42;;
60608;SDS011;48221;53.528;9.884;2022-10-16T12:55:26;0.65;;;0.65;;
60608;SDS011;48221;53.528;9.884;2022-10-16T13:00:57;0.70;;;0.60;;
60608;SDS011;48221;53.528;9.884;2022-10-16T13:06:05;1.27;;;0.90;;
60608;SDS011;48221;53.528;9.884;2022-10-16T13:11:49;2.70;;;1.02;;
60608;SDS011;48221;53.528;9.884;2022-10-16T13:25:22;1.38;;;1.00;;
60608;SDS011;48221;53.528;9.884;2022-10-16T13:27:56;1.40;;;1.30;;
60608;SDS011;48221;53.528;9.884;2022-10-16T13:30:26;0.70;;;0.70;;
60608;SDS011;48221;53.528;9.884;2022-10-16T13:32:58;1.95;;;0.77;;
60608;SDS011;48221;53.528;9.884;2022-10-16T13:35:27;1.80;;;1.02;;
60608;SDS011;48221;53.528;9.884;2022-10-16T13:38:14;0.63;;;0.60;;
60608;SDS011;48221;53.528;9.884;2022-10-16T13:40:51;2.47;;;0.98;;
60608;SDS011;48221;53.528;9.884;2022-10-16T13:46:20;0.65;;;0.65;;
60608;SDS011;48221;53.528;9.884;2022-10-16T13:48:40;1.15;;;0.93;;
60608;SDS011;48221;53.528;9.884;2022-10-16T13:53:42;0.75;;;0.70;;
60608;SDS011;48221;53.528;9.884;2022-10-16T13:56:12;1.13;;;0.95;;
60608;SDS011;48221;53.528;9.884;2022-10-16T13:58:42;0.40;;;0.40;;
60608;SDS011;48221;53.528;9.884;2022-10-16T14:01:42;0.88;;;0.68;;
60608;SDS011;48221;53.528;9.884;2022-10-16T14:04:08;0.57;;;0.57;;
60608;SDS011;48221;53.528;9.884;2022-10-16T14:06:35;0.80;;;0.80;;
60608;SDS011;48221;53.528;9.884;2022-10-16T14:09:05;0.68;;;0.55;;
60608;SDS011;48221;53.528;9.884;2022-10-16T14:11:33;4.30;;;0.70;;
60608;SDS011;48221;53.528;9.884;2022-10-16T14:14:03;0.85;;;0.57;;
60608;SDS011;48221;53.528;9.884;2022-10-16T14:16:30;0.63;;;0.60;;
60608;SDS011;48221;53.528;9.884;2022-10-16T14:18:58;1.20;;;0.90;;
60608;SDS011;48221;53.528;9.884;2022-10-16T14:21:26;1.70;;;0.45;;
60608;SDS011;48221;53.528;9.884;2022-10-16T14:23:52;0.55;;;0.55;;
60608;SDS011;48221;53.528;9.884;2022-10-16T14:26:20;0.70;;;0.70;;
60608;SDS011;48221;53.528;9.884;2022-10-16T14:29:02;0.50;;;0.50;;
60608;SDS011;48221;53.528;9.884;2022-10-16T14:31:35;0.47;;;0.47;;
60608;SDS011;48221;53.528;9.884;2022-10-16T14:34:01;0.40;;;0.40;;
60608;SDS011;48221;53.528;9.884;2022-10-16T14:36:27;0.30;;;0.30;;
60608;SDS011;48221;53.528;9.884;2022-10-16T14:38:56;2.38;;;1.17;;
60608;SDS011;48221;53.528;9.884;2022-10-16T14:41:26;0.38;;;0.38;;
60608;SDS011;48221;53.528;9.884;2022-10-16T14:43:55;0.85;;;0.70;;
60608;SDS011;48221;53.528;9.884;2022-10-16T14:46:28;0.93;;;0.60;;
60608;SDS011;48221;53.528;9.884;2022-10-16T14:49:38;0.88;;;0.80;;
60608;SDS011;48221;53.528;9.884;2022-10-16T14:51:46;0.60;;;0.52;;
60608;SDS011;48221;53.528;9.884;2022-10-16T14:54:15;2.35;;;1.40;;
60608;SDS011;48221;53.528;9.884;2022-10-16T14:56:43;1.00;;;0.90;;
60608;SDS011;48221;53.528;9.884;2022-10-16T14:59:34;0.47;;;0.35;;
60608;SDS011;48221;53.528;9.884;2022-10-16T15:04:47;0.50;;;0.50;;
60608;SDS011;48221;53.528;9.884;2022-10-16T15:07:13;1.25;;;1.10;;
60608;SDS011;48221;53.528;9.884;2022-10-16T15:09:38;1.05;;;0.80;;
60608;SDS011;48221;53.528;9.884;2022-10-16T15:12:04;0.52;;;0.52;;
60608;SDS011;48221;53.528;9.884;2022-10-16T15:14:29;0.40;;;0.40;;
60608;SDS011;48221;53.528;9.884;2022-10-16T15:16:54;5.25;;;0.63;;
60608;SDS011;48221;53.528;9.884;2022-10-16T15:19:19;0.90;;;0.65;;
60608;SDS011;48221;53.528;9.884;2022-10-16T15:21:45;0.10;;;0.10;;
60608;SDS011;48221;53.528;9.884;2022-10-16T15:24:11;0.30;;;0.30;;
60608;SDS011;48221;53.528;9.884;2022-10-16T15:26:38;0.70;;;0.65;;
60608;SDS011;48221;53.528;9.884;2022-10-16T15:29:03;1.60;;;0.52;;
60608;SDS011;48221;53.528;9.884;2022-10-16T15:31:29;1.67;;;0.70;;
60608;SDS011;48221;53.528;9.884;2022-10-16T15:33:55;0.68;;;0.52;;
60608;SDS011;48221;53.528;9.884;2022-10-16T15:36:30;0.55;;;0.55;;
60608;SDS011;48221;53.528;9.884;2022-10-16T15:38:59;0.65;;;0.43;;
60608;SDS011;48221;53.528;9.884;2022-10-16T15:41:24;1.65;;;0.95;;
60608;SDS011;48221;53.528;9.884;2022-10-16T15:43:50;0.30;;;0.30;;
60608;SDS011;48221;53.528;9.884;2022-10-16T15:46:20;0.75;;;0.60;;
60608;SDS011;48221;53.528;9.884;2022-10-16T15:48:47;0.52;;;0.52;;
60608;SDS011;48221;53.528;9.884;2022-10-16T15:51:14;0.70;;;0.70;;
60608;SDS011;48221;53.528;9.884;2022-10-16T15:53:39;0.40;;;0.40;;
60608;SDS011;48221;53.528;9.884;2022-10-16T15:56:05;0.43;;;0.43;;
60608;SDS011;48221;53.528;9.884;2022-10-16T15:58:31;0.38;;;0.38;;
60608;SDS011;48221;53.528;9.884;2022-10-16T16:00:57;0.55;;;0.55;;
60608;SDS011;48221;53.528;9.884;2022-10-16T16:03:25;0.20;;;0.20;;
60608;SDS011;48221;53.528;9.884;2022-10-16T16:05:52;0.55;;;0.55;;
60608;SDS011;48221;53.528;9.884;2022-10-16T16:08:17;0.20;;;0.20;;
60608;SDS011;48221;53.528;9.884;2022-10-16T16:10:42;0.20;;;0.20;;
60608;SDS011;48221;53.528;9.884;2022-10-16T16:13:08;0.32;;;0.32;;
60608;SDS011;48221;53.528;9.884;2022-10-16T16:15:33;0.30;;;0.30;;
60608;SDS011;48221;53.528;9.884;2022-10-16T16:17:58;0.95;;;0.75;;
60608;SDS011;48221;53.528;9.884;2022-10-16T16:20:25;0.57;;;0.55;;
60608;SDS011;48221;53.528;9.884;2022-10-16T16:22:50;0.63;;;0.63;;
60608;SDS011;48221;53.528;9.884;2022-10-16T16:25:16;0.45;;;0.45;;
60608;SDS011;48221;53.528;9.884;2022-10-16T16:27:41;0.70;;;0.65;;
60608;SDS011;48221;53.528;9.884;2022-10-16T16:30:06;0.52;;;0.47;;
60608;SDS011;48221;53.528;9.884;2022-10-16T16:32:34;0.73;;;0.43;;
60608;SDS011;48221;53.528;9.884;2022-10-16T16:34:59;0.20;;;0.20;;
60608;SDS011;48221;53.528;9.884;2022-10-16T16:37:25;0.30;;;0.30;;
60608;SDS011;48221;53.528;9.884;2022-10-16T16:39:50;0.30;;;0.30;;
60608;SDS011;48221;53.528;9.884;2022-10-16T16:42:16;0.30;;;0.30;;
60608;SDS011;48221;53.528;9.884;2022-10-16T16:44:41;0.30;;;0.30;;
60608;SDS011;48221;53.528;9.884;2022-10-16T16:47:07;0.45;;;0.40;;
60608;SDS011;48221;53.528;9.884;2022-10-16T16:49:32;0.20;;;0.20;;
60608;SDS011;48221;53.528;9.884;2022-10-16T16:51:57;0.10;;;0.10;;
60608;SDS011;48221;53.528;9.884;2022-10-16T16:54:35;0.47;;;0.47;;
60608;SDS011;48221;53.528;9.884;2022-10-16T16:57:00;0.20;;;0.20;;